createdAt,value
2022-10-14T00:00:05.028Z,100733.91
2022-10-14T00:02:27.025Z,100727.21
2022-10-14T00:03:31.260Z,100728.56
2022-10-14T00:04:33.541Z,100727.68
2022-10-14T00:05:41.263Z,100724.16
2022-10-14T00:06:45.301Z,100726.83
2022-10-14T00:07:50.437Z,100725.91
2022-10-14T00:08:52.971Z,100725.94
2022-10-14T00:09:55.005Z,100727.68
2022-10-14T00:10:57.224Z,100723.23
2022-10-14T00:11:59.219Z,100725.91
2022-10-14T00:13:03.034Z,100725.94
2022-10-14T00:15:19.102Z,100728.14
2022-10-14T00:17:37.450Z,100729.03
2022-10-14T00:18:39.821Z,100725.09
2022-10-14T00:19:41.961Z,100718.90
2022-10-14T00:20:56.530Z,100725.09
2022-10-14T00:22:00.148Z,100725.09
2022-10-14T00:23:03.427Z,100722.42
2022-10-14T00:24:06.296Z,100715.34
2022-10-14T00:25:08.788Z,100716.23
2022-10-14T00:26:25.546Z,100720.67
2022-10-14T00:27:27.709Z,100718.90
2022-10-14T00:28:31.035Z,100718.02
2022-10-14T00:29:33.490Z,100720.67
2022-10-14T00:30:36.748Z,100718.97
2022-10-14T00:31:38.800Z,100715.34
2022-10-14T00:32:41.438Z,100721.64
2022-10-14T00:33:44.484Z,100718.97
2022-10-14T00:34:46.485Z,100723.41
2022-10-14T00:35:55.969Z,100720.75
2022-10-14T00:36:58.712Z,100721.64
2022-10-14T00:38:02.270Z,100720.75
2022-10-14T00:39:04.354Z,100713.67
2022-10-14T00:40:08.674Z,100718.16
2022-10-14T00:41:16.253Z,100717.23
2022-10-14T00:42:20.172Z,100719.97
2022-10-14T00:43:24.617Z,100714.56
2022-10-14T00:44:30.578Z,100714.63
2022-10-14T00:45:35.211Z,100719.01
2022-10-14T00:46:39.962Z,100711.90
2022-10-14T00:47:42.271Z,100712.82
2022-10-14T00:48:44.789Z,100715.48
2022-10-14T00:49:46.971Z,100711.90
2022-10-14T00:50:52.465Z,100715.48
2022-10-14T00:51:58.363Z,100716.41
2022-10-14T00:53:01.303Z,100718.16
2022-10-14T00:54:03.777Z,100717.30
2022-10-14T00:55:10.469Z,100717.30
2022-10-14T00:56:13.618Z,100717.30
2022-10-14T00:57:16.381Z,100715.48
2022-10-14T00:58:18.417Z,100715.48
2022-10-14T00:59:20.538Z,100713.67
2022-10-14T01:00:23.062Z,100717.23
2022-10-14T01:01:26.211Z,100705.67
2022-10-14T01:02:28.976Z,100710.16
2022-10-14T01:03:32.044Z,100711.90
2022-10-14T01:04:36.285Z,100711.02
2022-10-14T01:05:42.116Z,100707.42
2022-10-14T01:06:54.293Z,100701.23
2022-10-14T01:09:30.736Z,100708.77
2022-10-14T01:10:45.279Z,100697.67
2022-10-14T01:12:28.055Z,100703.97
2022-10-14T01:14:47.817Z,100701.76
2022-10-14T01:16:11.761Z,100700.48
2022-10-14T01:17:26.611Z,100698.78
2022-10-14T01:19:07.299Z,100699.63
2022-10-14T01:20:26.646Z,100700.56
2022-10-14T01:23:14.268Z,100694.09
2022-10-14T01:26:31.264Z,100693.30
2022-10-14T01:27:56.113Z,100699.95
2022-10-14T01:29:18.477Z,100704.50
2022-10-14T01:30:24.524Z,100701.91
2022-10-14T01:31:30.150Z,100704.64
2022-10-14T01:32:39.226Z,100695.83
2022-10-14T01:33:43.676Z,100695.83
2022-10-14T01:34:55.071Z,100700.31
2022-10-14T01:36:20.299Z,100696.72
2022-10-14T01:37:24.169Z,100694.05
2022-10-14T01:38:31.172Z,100694.98
2022-10-14T01:40:58.119Z,100688.22
2022-10-14T01:43:35.018Z,100687.38
2022-10-14T01:44:40.453Z,100690.43
2022-10-14T01:45:45.652Z,100693.09
2022-10-14T01:46:50.821Z,100690.36
2022-10-14T01:47:54.147Z,100689.50
2022-10-14T01:48:59.917Z,100687.70
2022-10-14T01:50:04.831Z,100689.36
2022-10-14T01:51:12.117Z,100690.25
2022-10-14T01:52:23.451Z,100690.18
2022-10-14T01:53:31.898Z,100691.03
2022-10-14T01:54:37.077Z,100686.55
2022-10-14T01:55:41.602Z,100689.22
2022-10-14T01:56:45.179Z,100686.52
2022-10-14T01:57:50.060Z,100691.84
2022-10-14T01:58:52.340Z,100686.52
2022-10-14T01:59:54.857Z,100688.22
2022-10-14T02:00:57.064Z,100680.44
2022-10-14T02:02:00.049Z,100680.44
2022-10-14T02:03:02.311Z,100688.22
2022-10-14T02:05:31.467Z,100685.09
2022-10-14T02:06:36.963Z,100689.04
2022-10-14T02:07:43.968Z,100688.16
2022-10-14T02:08:56.180Z,100682.78
2022-10-14T02:10:35.376Z,100689.89
2022-10-14T02:13:02.293Z,100688.57
2022-10-14T02:14:23.377Z,100688.16
2022-10-14T02:15:29.388Z,100695.30
2022-10-14T02:16:38.476Z,100690.89
2022-10-14T02:17:56.115Z,100691.84
2022-10-14T02:19:21.011Z,100692.70
2022-10-14T02:21:48.754Z,100692.31
2022-10-14T02:23:07.902Z,100692.77
2022-10-14T02:24:17.073Z,100687.52
2022-10-14T02:25:30.862Z,100687.52
2022-10-14T02:26:33.368Z,100685.77
2022-10-14T02:27:35.470Z,100684.84
2022-10-14T02:28:37.780Z,100692.84
2022-10-14T02:29:41.951Z,100684.84
2022-10-14T02:30:52.365Z,100683.03
2022-10-14T02:31:54.591Z,100691.03
2022-10-14T02:32:57.409Z,100689.22
2022-10-14T02:34:01.737Z,100690.11
2022-10-14T02:35:04.922Z,100693.63
2022-10-14T02:36:09.653Z,100690.11
2022-10-14T02:37:12.584Z,100690.04
2022-10-14T02:38:14.865Z,100684.70
2022-10-14T02:40:39.811Z,100684.16
2022-10-14T02:41:41.849Z,100689.04
2022-10-14T02:42:43.951Z,100687.23
2022-10-14T02:43:46.193Z,100688.16
2022-10-14T02:44:55.334Z,100685.48
2022-10-14T02:45:59.558Z,100692.56
2022-10-14T02:47:01.806Z,100688.11
2022-10-14T02:48:06.229Z,100691.63
2022-10-14T02:49:08.925Z,100692.48
2022-10-14T02:50:12.589Z,100690.71
2022-10-14T02:51:15.349Z,100692.48
2022-10-14T02:52:18.781Z,100693.38
2022-10-14T02:53:21.049Z,100688.90
2022-10-14T02:54:23.167Z,100688.90
2022-10-14T02:55:25.261Z,100692.42
2022-10-14T02:56:27.478Z,100690.64
2022-10-14T02:57:29.747Z,100689.75
2022-10-14T02:58:32.368Z,100689.68
2022-10-14T02:59:34.438Z,100687.90
2022-10-14T03:00:37.631Z,100692.34
2022-10-14T03:01:40.167Z,100685.23
2022-10-14T03:02:44.527Z,100700.30
2022-10-14T03:03:47.981Z,100690.49
2022-10-14T03:04:51.083Z,100694.97
2022-10-14T03:05:53.274Z,100687.83
2022-10-14T03:06:55.742Z,100693.16
2022-10-14T03:07:58.211Z,100694.02
2022-10-14T03:09:01.340Z,100690.49
2022-10-14T03:10:06.998Z,100694.97
2022-10-14T03:11:09.659Z,100698.49
2022-10-14T03:12:12.516Z,100696.69
2022-10-14T03:13:15.328Z,100693.16
2022-10-14T03:14:19.858Z,100687.83
2022-10-14T03:15:23.138Z,100685.16
2022-10-14T03:16:25.334Z,100688.68
2022-10-14T03:17:28.019Z,100690.49
2022-10-14T03:18:31.539Z,100692.31
2022-10-14T03:19:35.503Z,100686.91
2022-10-14T03:20:37.725Z,100689.56
2022-10-14T03:21:40.907Z,100686.02
2022-10-14T03:22:44.846Z,100693.09
2022-10-14T03:23:48.450Z,100687.76
2022-10-14T03:24:50.581Z,100685.09
2022-10-14T03:25:57.906Z,100685.94
2022-10-14T03:27:02.125Z,100680.61
2022-10-14T03:28:04.566Z,100685.94
2022-10-14T03:29:11.512Z,100688.57
2022-10-14T03:30:19.681Z,100682.42
2022-10-14T03:31:23.720Z,100688.61
2022-10-14T03:32:39.941Z,100686.83
2022-10-14T03:34:02.010Z,100693.09
2022-10-14T03:35:05.977Z,100685.94
2022-10-14T03:36:09.008Z,100685.94
2022-10-14T03:37:12.992Z,100691.28
2022-10-14T03:38:17.036Z,100686.02
2022-10-14T03:39:19.927Z,100685.16
2022-10-14T03:40:24.123Z,100688.68
2022-10-14T03:41:27.773Z,100684.30
2022-10-14T03:42:29.965Z,100687.83
2022-10-14T03:43:32.256Z,100679.83
2022-10-14T03:44:35.713Z,100686.09
2022-10-14T03:45:58.009Z,100681.64
2022-10-14T03:47:00.644Z,100688.68
2022-10-14T03:48:05.269Z,100682.50
2022-10-14T03:49:07.794Z,100683.42
2022-10-14T03:50:10.730Z,100681.64
2022-10-14T03:51:17.826Z,100686.97
2022-10-14T03:52:21.065Z,100680.68
2022-10-14T03:53:26.557Z,100684.30
2022-10-14T03:54:30.584Z,100686.97
2022-10-14T03:55:32.787Z,100686.97
2022-10-14T03:56:36.052Z,100685.16
2022-10-14T03:57:38.422Z,100693.16
2022-10-14T03:58:40.817Z,100689.64
2022-10-14T03:59:45.337Z,100685.16
2022-10-14T04:00:49.411Z,100686.02
2022-10-14T04:01:53.525Z,100696.69
2022-10-14T04:02:57.785Z,100691.34
2022-10-14T04:04:10.695Z,100687.83
2022-10-14T04:05:13.092Z,100684.30
2022-10-14T04:06:16.876Z,100687.83
2022-10-14T04:07:19.336Z,100689.56
2022-10-14T04:08:23.358Z,100688.68
2022-10-14T04:09:27.487Z,100692.23
2022-10-14T04:10:29.776Z,100688.68
2022-10-14T04:11:32.563Z,100683.34
2022-10-14T04:12:37.767Z,100687.83
2022-10-14T04:13:42.042Z,100693.16
2022-10-14T04:14:44.239Z,100686.02
2022-10-14T04:15:46.321Z,100693.16
2022-10-14T04:16:50.355Z,100692.23
2022-10-14T04:17:53.519Z,100691.34
2022-10-14T04:18:57.029Z,100686.02
2022-10-14T04:19:59.275Z,100697.56
2022-10-14T04:21:02.681Z,100686.91
2022-10-14T04:22:05.827Z,100689.56
2022-10-14T04:23:08.741Z,100689.56
2022-10-14T04:24:13.150Z,100694.90
2022-10-14T04:25:19.943Z,100691.28
2022-10-14T04:26:24.018Z,100685.09
2022-10-14T04:27:26.428Z,100688.61
2022-10-14T04:28:31.310Z,100691.28
2022-10-14T04:29:39.078Z,100693.94
2022-10-14T04:30:43.142Z,100700.16
2022-10-14T04:31:47.151Z,100691.28
2022-10-14T04:32:49.669Z,100674.64
2022-10-14T04:33:52.000Z,100674.64
2022-10-14T04:34:56.389Z,100684.16
2022-10-14T04:36:01.843Z,100687.76
2022-10-14T04:37:05.802Z,100681.56
2022-10-14T04:38:25.441Z,100685.94
2022-10-14T04:39:30.101Z,100681.56
2022-10-14T04:40:34.337Z,100691.34
2022-10-14T04:41:37.472Z,100691.34
2022-10-14T04:42:41.111Z,100691.34
2022-10-14T04:43:45.374Z,100692.31
2022-10-14T04:45:05.514Z,100693.16
2022-10-14T04:46:13.088Z,100693.16
2022-10-14T04:47:15.306Z,100694.90
2022-10-14T04:48:18.057Z,100694.02
2022-10-14T04:49:20.212Z,100688.68
2022-10-14T04:50:25.261Z,100691.34
2022-10-14T04:51:46.781Z,100691.42
2022-10-14T04:52:54.474Z,100688.75
2022-10-14T04:53:58.905Z,100695.90
2022-10-14T04:55:12.136Z,100687.02
2022-10-14T04:56:16.285Z,100686.16
2022-10-14T04:57:20.315Z,100688.83
2022-10-14T04:58:23.012Z,100687.97
2022-10-14T04:59:26.813Z,100691.56
2022-10-14T05:00:31.392Z,100692.42
2022-10-14T05:01:39.278Z,100688.83
2022-10-14T05:02:42.002Z,100685.30
2022-10-14T05:03:45.616Z,100689.68
2022-10-14T05:04:48.738Z,100688.83
2022-10-14T05:05:52.268Z,100687.97
2022-10-14T05:06:54.753Z,100683.49
2022-10-14T05:07:58.327Z,100683.42
2022-10-14T05:09:02.979Z,100694.09
2022-10-14T05:10:06.601Z,100686.97
2022-10-14T05:11:14.329Z,100692.31
2022-10-14T05:12:18.424Z,100692.31
2022-10-14T05:13:23.973Z,100697.64
2022-10-14T05:14:30.935Z,100696.69
2022-10-14T05:15:35.054Z,100698.49
2022-10-14T05:16:40.227Z,100701.16
2022-10-14T05:17:44.076Z,100698.56
2022-10-14T05:18:46.594Z,100695.90
2022-10-14T05:19:49.269Z,100697.64
2022-10-14T05:20:53.578Z,100697.64
2022-10-14T05:21:57.022Z,100698.49
2022-10-14T05:23:00.970Z,100700.30
2022-10-14T05:24:04.235Z,100701.23
2022-10-14T05:25:09.457Z,100711.83
2022-10-14T05:26:13.982Z,100710.08
2022-10-14T05:27:16.931Z,100706.56
2022-10-14T05:28:20.357Z,100717.16
2022-10-14T05:29:22.940Z,100718.08
2022-10-14T05:30:28.655Z,100713.64
2022-10-14T05:31:30.515Z,100714.49
2022-10-14T05:32:40.910Z,100718.02
2022-10-14T05:33:43.145Z,100718.90
2022-10-14T05:34:45.978Z,100719.75
2022-10-14T05:35:59.956Z,100719.75
2022-10-14T05:37:01.435Z,100714.42
2022-10-14T05:38:05.330Z,100717.09
2022-10-14T05:39:09.886Z,100722.42
2022-10-14T05:40:13.315Z,100717.09
2022-10-14T05:41:15.983Z,100721.56
2022-10-14T05:42:18.136Z,100723.27
2022-10-14T05:43:20.885Z,100724.23
2022-10-14T05:44:23.528Z,100726.83
2022-10-14T05:45:25.972Z,100725.94
2022-10-14T05:46:28.245Z,100726.83
2022-10-14T05:47:30.553Z,100731.23
2022-10-14T05:48:34.588Z,100733.02
2022-10-14T05:49:37.055Z,100728.56
2022-10-14T05:50:39.331Z,100731.23
2022-10-14T05:51:43.528Z,100724.16
2022-10-14T05:52:47.602Z,100729.42
2022-10-14T05:53:51.768Z,100728.56
2022-10-14T05:54:54.757Z,100730.34
2022-10-14T05:57:21.808Z,100728.95
2022-10-14T05:58:24.244Z,100727.68
2022-10-14T05:59:26.944Z,100732.16
2022-10-14T06:00:29.518Z,100727.68
2022-10-14T06:01:33.446Z,100730.34
2022-10-14T06:02:35.884Z,100725.02
2022-10-14T06:03:37.875Z,100727.68
2022-10-14T06:04:40.948Z,100733.91
2022-10-14T06:05:44.746Z,100733.02
2022-10-14T06:06:47.497Z,100733.02
2022-10-14T06:07:50.248Z,100729.50
2022-10-14T06:08:54.527Z,100735.69
2022-10-14T06:09:56.647Z,100728.56
2022-10-14T06:11:01.373Z,100734.83
2022-10-14T06:12:04.407Z,100734.83
2022-10-14T06:13:07.838Z,100727.75
2022-10-14T06:14:11.687Z,100740.16
2022-10-14T06:15:16.378Z,100726.90
2022-10-14T06:16:20.035Z,100726.90
2022-10-14T06:17:23.638Z,100736.61
2022-10-14T06:18:26.295Z,100736.61
2022-10-14T06:19:30.529Z,100744.61
2022-10-14T06:20:33.629Z,100746.42
2022-10-14T06:21:35.743Z,100744.61
2022-10-14T06:22:39.313Z,100737.49
2022-10-14T06:23:41.493Z,100736.61
2022-10-14T06:24:43.712Z,100747.27
2022-10-14T06:25:46.022Z,100735.75
2022-10-14T06:26:49.589Z,100744.67
2022-10-14T06:27:52.139Z,100734.02
2022-10-14T06:28:55.418Z,100746.42
2022-10-14T06:29:58.258Z,100736.61
2022-10-14T06:31:00.382Z,100747.27
2022-10-14T06:32:03.970Z,100736.61
2022-10-14T06:33:06.158Z,100737.49
2022-10-14T06:34:08.660Z,100740.16
2022-10-14T06:35:11.113Z,100738.34
2022-10-14T06:36:14.786Z,100737.49
2022-10-14T06:37:17.413Z,100736.61
2022-10-14T06:38:20.615Z,100749.02
2022-10-14T06:39:22.608Z,100736.61
2022-10-14T06:40:25.169Z,100746.42
2022-10-14T06:41:28.444Z,100748.16
2022-10-14T06:42:30.665Z,100745.49
2022-10-14T06:43:33.943Z,100738.42
2022-10-14T06:44:36.858Z,100747.23
2022-10-14T06:45:38.831Z,100746.42
2022-10-14T06:46:41.073Z,100739.27
2022-10-14T06:47:45.123Z,100746.42
2022-10-14T06:48:50.347Z,100751.75
2022-10-14T06:49:51.313Z,100749.08
2022-10-14T06:50:53.466Z,100743.75
2022-10-14T06:51:55.978Z,100746.42
2022-10-14T06:52:58.152Z,100749.08
2022-10-14T06:54:01.405Z,100739.27
2022-10-14T06:55:04.535Z,100744.61
2022-10-14T06:56:08.573Z,100749.08
2022-10-14T06:57:10.771Z,100737.56
2022-10-14T06:58:13.345Z,100748.23
2022-10-14T06:59:16.165Z,100748.23
2022-10-14T07:00:19.001Z,100749.16
2022-10-14T07:01:21.313Z,100749.16
2022-10-14T07:02:25.235Z,100750.02
2022-10-14T07:03:29.462Z,100755.34
2022-10-14T07:04:31.654Z,100752.75
2022-10-14T07:05:35.086Z,100746.48
2022-10-14T07:06:37.445Z,100747.34
2022-10-14T07:07:39.436Z,100749.08
2022-10-14T07:08:42.719Z,100748.23
2022-10-14T07:09:44.837Z,100748.23
2022-10-14T07:10:47.747Z,100747.34
2022-10-14T07:12:10.676Z,100749.94
2022-10-14T07:13:13.000Z,100748.16
2022-10-14T07:14:15.190Z,100756.16
2022-10-14T07:15:18.402Z,100747.27
2022-10-14T07:16:20.603Z,100748.16
2022-10-14T07:17:23.042Z,100747.27
2022-10-14T07:18:25.415Z,100753.49
2022-10-14T07:19:27.645Z,100749.94
2022-10-14T07:20:29.749Z,100748.16
2022-10-14T07:21:31.789Z,100752.61
2022-10-14T07:22:38.332Z,100739.27
2022-10-14T07:23:37.862Z,100739.27
2022-10-14T07:24:40.185Z,100751.75
2022-10-14T07:25:42.320Z,100734.02
2022-10-14T07:26:44.821Z,100742.90
2022-10-14T07:27:47.530Z,100742.02
2022-10-14T07:28:49.844Z,100738.42
2022-10-14T07:29:52.369Z,100734.90
2022-10-14T07:31:05.096Z,100734.90
2022-10-14T07:32:07.822Z,100739.27
2022-10-14T07:33:11.235Z,100735.75
2022-10-14T07:34:13.710Z,100733.94
2022-10-14T07:35:15.968Z,100735.75
2022-10-14T07:36:21.627Z,100740.16
2022-10-14T07:37:23.659Z,100732.16
2022-10-14T07:38:27.257Z,100737.49
2022-10-14T07:39:29.322Z,100736.61
2022-10-14T07:40:33.516Z,100744.61
2022-10-14T07:41:35.526Z,100732.16
2022-10-14T07:42:37.640Z,100729.56
2022-10-14T07:43:39.843Z,100733.94
2022-10-14T07:44:42.947Z,100732.16
2022-10-14T07:45:45.168Z,100732.16
2022-10-14T07:46:48.458Z,100733.94
2022-10-14T07:47:51.802Z,100728.67
2022-10-14T07:48:57.574Z,100729.67
2022-10-14T07:50:00.811Z,100735.08
2022-10-14T07:51:03.024Z,100736.89
2022-10-14T07:52:05.789Z,100741.37
2022-10-14T07:53:08.064Z,100743.15
2022-10-14T07:55:26.864Z,100739.23
2022-10-14T07:56:29.996Z,100742.44
2022-10-14T07:57:32.497Z,100748.69
2022-10-14T07:58:35.578Z,100737.20
2022-10-14T07:59:38.737Z,100741.69
2022-10-14T08:00:41.496Z,100743.50
2022-10-14T08:02:59.136Z,100740.62
2022-10-14T08:04:01.640Z,100738.41
2022-10-14T08:05:32.989Z,100742.89
2022-10-14T08:06:11.690Z,100748.22
2022-10-14T08:07:14.113Z,100747.37
2022-10-14T08:08:17.698Z,100750.89
2022-10-14T08:09:20.938Z,100746.41
2022-10-14T08:10:23.418Z,100742.08
2022-10-14T08:11:27.627Z,100739.48
2022-10-14T08:12:29.762Z,100741.22
2022-10-14T08:13:31.871Z,100738.55
2022-10-14T08:14:35.922Z,100736.73
2022-10-14T08:15:39.062Z,100741.22
2022-10-14T08:16:41.419Z,100740.36
2022-10-14T08:17:43.882Z,100736.81
2022-10-14T08:18:47.386Z,100739.55
2022-10-14T08:19:50.256Z,100738.69
2022-10-14T08:20:53.970Z,100737.77
2022-10-14T08:21:56.123Z,100734.14
2022-10-14T08:22:58.897Z,100740.44
2022-10-14T08:24:02.053Z,100737.77
2022-10-14T08:25:05.105Z,100736.81
2022-10-14T08:26:24.690Z,100733.29
2022-10-14T08:27:27.338Z,100733.29
2022-10-14T08:28:29.504Z,100737.80
2022-10-14T08:29:32.199Z,100732.55
2022-10-14T08:30:34.923Z,100736.09
2022-10-14T08:31:37.436Z,100733.50
2022-10-14T08:32:40.065Z,100731.69
2022-10-14T08:33:42.689Z,100737.88
2022-10-14T08:34:44.970Z,100741.42
2022-10-14T08:35:53.703Z,100738.69
2022-10-14T08:36:52.999Z,100737.77
2022-10-14T08:38:01.851Z,100736.88
2022-10-14T08:39:07.873Z,100737.77
2022-10-14T08:40:13.597Z,100737.70
2022-10-14T08:41:36.220Z,100740.36
2022-10-14T08:43:00.703Z,100742.08
2022-10-14T08:44:23.198Z,100731.41
2022-10-14T08:45:38.693Z,100734.08
2022-10-14T08:46:53.954Z,100732.36
2022-10-14T08:47:56.228Z,100735.03
2022-10-14T08:50:29.665Z,100739.09
2022-10-14T08:51:31.993Z,100736.88
2022-10-14T08:56:41.965Z,100729.28
2022-10-14T08:57:51.129Z,100728.81
2022-10-14T08:58:53.174Z,100727.11
2022-10-14T08:59:55.719Z,100727.89
2022-10-14T09:01:00.533Z,100736.73
2022-10-14T09:02:05.815Z,100736.73
2022-10-14T09:03:15.216Z,100735.81
2022-10-14T09:04:18.210Z,100734.89
2022-10-14T09:05:24.658Z,100733.08
2022-10-14T09:06:31.187Z,100738.34
2022-10-14T09:07:33.875Z,100733.90
2022-10-14T09:08:40.931Z,100734.75
2022-10-14T09:11:08.354Z,100732.48
2022-10-14T09:21:51.538Z,100732.70
2022-10-14T09:22:36.548Z,100732.30
2022-10-14T09:23:38.714Z,100725.23
2022-10-14T09:24:40.740Z,100730.62
2022-10-14T09:25:55.913Z,100725.30
2022-10-14T09:27:01.830Z,100731.48
2022-10-14T09:28:03.877Z,100728.75
2022-10-14T09:30:22.214Z,100724.77
2022-10-14T09:31:26.021Z,100724.23
2022-10-14T09:32:42.428Z,100733.16
2022-10-14T09:33:46.432Z,100729.56
2022-10-14T09:34:50.339Z,100725.97
2022-10-14T09:35:54.587Z,100720.71
2022-10-14T09:38:14.801Z,100716.70
2022-10-14T09:39:20.707Z,100731.38
2022-10-14T09:40:37.318Z,100720.71
2022-10-14T09:41:40.782Z,100715.42
2022-10-14T09:43:06.416Z,100718.97
2022-10-14T09:44:29.575Z,100717.23
2022-10-14T09:47:19.404Z,100708.30
2022-10-14T09:48:48.302Z,100706.56
2022-10-14T09:49:51.235Z,100703.97
2022-10-14T09:50:55.115Z,100709.38
2022-10-14T09:51:59.769Z,100708.48
2022-10-14T09:54:23.008Z,100707.24
2022-10-14T09:55:27.625Z,100702.38
2022-10-14T09:56:39.146Z,100707.77
2022-10-14T09:57:42.496Z,100707.77
2022-10-14T09:58:48.581Z,100705.11
2022-10-14T10:01:15.471Z,100702.77
2022-10-14T10:02:40.225Z,100706.84
2022-10-14T10:03:42.482Z,100695.30
2022-10-14T10:04:45.201Z,100704.18
2022-10-14T10:05:47.221Z,100705.95
2022-10-14T10:06:54.328Z,100700.63
2022-10-14T10:08:16.890Z,100705.03
2022-10-14T10:09:19.584Z,100707.77
2022-10-14T10:10:22.531Z,100706.95
2022-10-14T10:11:29.622Z,100707.91
2022-10-14T10:12:33.341Z,100704.28
2022-10-14T10:13:42.267Z,100700.77
2022-10-14T10:14:44.634Z,100692.77
2022-10-14T10:15:58.043Z,100705.17
2022-10-14T10:17:12.321Z,100707.84
2022-10-14T10:18:18.117Z,100701.55
2022-10-14T10:19:28.826Z,100698.95
2022-10-14T10:20:32.564Z,100703.44
2022-10-14T10:21:34.812Z,100695.44
2022-10-14T10:22:37.359Z,100702.58
2022-10-14T10:25:01.709Z,100698.57
2022-10-14T10:26:19.536Z,100699.91
2022-10-14T10:28:47.143Z,100695.83
2022-10-14T10:29:49.433Z,100695.37
2022-10-14T10:32:15.438Z,100694.05
2022-10-14T10:33:37.968Z,100697.11
2022-10-14T10:36:35.289Z,100699.39
2022-10-14T10:37:44.060Z,100700.70
2022-10-14T10:38:55.986Z,100701.63
2022-10-14T10:40:38.978Z,100698.95
2022-10-14T10:41:55.723Z,100697.25
2022-10-14T10:43:19.284Z,100702.58
2022-10-14T10:45:48.748Z,100698.78
2022-10-14T10:48:15.349Z,100701.52
2022-10-14T10:49:28.837Z,100696.64
2022-10-14T10:50:37.722Z,100702.89
2022-10-14T10:53:26.110Z,100697.25
2022-10-14T10:56:16.213Z,100688.36
2022-10-14T10:57:45.365Z,100692.41
2022-10-14T10:59:26.498Z,100688.92
2022-10-14T11:00:28.999Z,100689.88
2022-10-14T11:03:23.596Z,100688.58
2022-10-14T11:04:47.361Z,100682.00
2022-10-14T11:05:56.718Z,100684.66
2022-10-14T11:07:14.787Z,100682.95
2022-10-14T11:08:48.838Z,100681.20
2022-10-14T11:09:59.598Z,100679.40
2022-10-14T11:12:55.091Z,100672.80
2022-10-14T11:14:10.941Z,100679.47
2022-10-14T11:15:34.136Z,100681.20
2022-10-14T11:17:00.119Z,100674.07
2022-10-14T11:19:33.777Z,100668.18
2022-10-14T11:20:43.759Z,100668.60
2022-10-14T11:22:09.607Z,100678.34
2022-10-14T11:23:30.158Z,100673.89
2022-10-14T11:24:48.417Z,100673.76
2022-10-14T11:26:03.474Z,100668.43
2022-10-14T11:27:15.436Z,100661.29
2022-10-14T11:28:26.815Z,100659.47
2022-10-14T11:30:06.550Z,100655.00
2022-10-14T11:31:15.341Z,100657.59
2022-10-14T11:32:34.552Z,100654.86
2022-10-14T11:33:55.480Z,100659.27
2022-10-14T11:35:10.557Z,100653.01
2022-10-14T11:36:30.984Z,100661.86
2022-10-14T11:37:44.622Z,100660.05
2022-10-14T11:39:09.829Z,100659.12
2022-10-14T11:41:58.917Z,100650.52
2022-10-14T11:43:17.539Z,100658.05
2022-10-14T11:44:26.291Z,100649.20
2022-10-14T11:45:38.717Z,100648.25
2022-10-14T11:46:43.584Z,100653.58
2022-10-14T11:48:15.892Z,100649.98
2022-10-14T11:50:42.546Z,100652.93
2022-10-14T11:52:08.992Z,100644.48
2022-10-14T11:53:32.200Z,100649.73
2022-10-14T11:54:38.428Z,100649.73
2022-10-14T11:55:43.840Z,100654.11
2022-10-14T11:56:57.647Z,100648.73
2022-10-14T12:00:07.545Z,100642.83
2022-10-14T12:01:29.338Z,100647.71
2022-10-14T12:02:55.579Z,100649.45
2022-10-14T12:04:04.692Z,100650.30
2022-10-14T12:05:14.088Z,100650.27
2022-10-14T12:06:23.388Z,100646.64
2022-10-14T12:07:34.885Z,100645.78
2022-10-14T12:08:50.113Z,100642.27
2022-10-14T12:11:11.633Z,100639.98
2022-10-14T12:12:16.606Z,100638.64
2022-10-14T12:13:20.651Z,100642.20
2022-10-14T12:14:40.763Z,100640.38
2022-10-14T12:15:46.788Z,100637.72
2022-10-14T12:16:49.972Z,100635.86
2022-10-14T12:17:58.114Z,100636.64
2022-10-14T12:19:00.298Z,100642.83
2022-10-14T12:20:25.510Z,100640.13
2022-10-14T12:21:34.518Z,100643.64
2022-10-14T12:22:37.653Z,100640.91
2022-10-14T12:24:58.726Z,100636.83
2022-10-14T12:26:14.852Z,100639.02
2022-10-14T12:27:17.109Z,100640.76
2022-10-14T12:28:20.572Z,100639.83
2022-10-14T12:30:38.716Z,100635.72
2022-10-14T12:32:05.554Z,100636.23
2022-10-14T12:33:12.351Z,100639.76
2022-10-14T12:34:29.534Z,100638.83
2022-10-14T12:35:51.350Z,100625.50
2022-10-14T12:36:54.132Z,100631.69
2022-10-14T12:39:21.581Z,100621.95
2022-10-14T12:40:27.929Z,100620.31
2022-10-14T12:41:41.336Z,100622.09
2022-10-14T12:44:11.682Z,100619.94
2022-10-14T12:45:21.776Z,100625.76
2022-10-14T12:46:24.031Z,100620.50
2022-10-14T12:47:32.287Z,100621.39
2022-10-14T12:48:35.379Z,100626.72
2022-10-14T12:49:37.898Z,100615.17
2022-10-14T12:50:40.745Z,100629.39
2022-10-14T12:52:00.108Z,100621.39
2022-10-14T12:54:19.109Z,100618.20
2022-10-14T12:55:22.914Z,100623.09
2022-10-14T12:57:54.341Z,100620.83
2022-10-14T12:58:59.248Z,100622.17
2022-10-14T13:01:21.416Z,100618.94
2022-10-14T13:02:36.007Z,100616.69
2022-10-14T13:03:43.488Z,100614.02
2022-10-14T13:04:50.018Z,100612.16
2022-10-14T13:05:53.310Z,100612.16
2022-10-14T13:07:39.898Z,100612.16
2022-10-14T13:08:26.856Z,100611.23
2022-10-14T13:09:31.205Z,100609.35
2022-10-14T13:10:45.867Z,100611.16
2022-10-14T13:11:53.566Z,100607.61
2022-10-14T13:12:55.665Z,100604.02
2022-10-14T13:14:02.405Z,100610.20
2022-10-14T13:15:26.536Z,100612.83
2022-10-14T13:16:32.982Z,100610.16
2022-10-14T13:17:44.373Z,100615.50
2022-10-14T13:18:50.504Z,100609.28
2022-10-14T13:19:52.825Z,100615.50
2022-10-14T13:20:57.209Z,100606.53
2022-10-14T13:22:00.839Z,100613.69
2022-10-14T13:23:32.932Z,100609.20
2022-10-14T13:24:38.537Z,100612.75
2022-10-14T13:25:42.573Z,100608.20
2022-10-14T13:27:14.989Z,100602.87
2022-10-14T13:28:28.235Z,100605.53
2022-10-14T13:29:43.646Z,100606.39
2022-10-14T13:30:55.716Z,100602.94
2022-10-14T13:32:08.042Z,100604.68
2022-10-14T13:34:37.041Z,100606.78
2022-10-14T13:35:53.635Z,100605.45
2022-10-14T13:37:05.591Z,100601.94
2022-10-14T13:38:15.646Z,100607.20
2022-10-14T13:40:52.177Z,100608.05
2022-10-14T13:41:54.824Z,100601.86
2022-10-14T13:42:59.053Z,100601.86
2022-10-14T13:44:01.795Z,100601.86
2022-10-14T13:45:13.125Z,100602.72
2022-10-14T13:46:37.114Z,100600.94
2022-10-14T13:48:57.716Z,100606.70
2022-10-14T13:50:00.351Z,100599.97
2022-10-14T13:52:25.196Z,100598.78
2022-10-14T13:53:27.484Z,100602.72
2022-10-14T13:54:30.590Z,100600.13
2022-10-14T13:55:33.754Z,100601.01
2022-10-14T13:56:36.228Z,100600.13
2022-10-14T13:58:07.394Z,100600.13
2022-10-14T13:58:43.656Z,100603.68
2022-10-14T14:00:22.554Z,100605.45
2022-10-14T14:02:17.400Z,100604.16
2022-10-14T14:03:23.803Z,100606.39
2022-10-14T14:04:27.847Z,100606.46